createdAt,value
2023-03-08T00:00:15.328Z,57.50
2023-03-08T00:02:42.294Z,57.40
2023-03-08T00:05:10.141Z,57.30
2023-03-08T00:07:37.872Z,57.40
2023-03-08T00:10:05.943Z,57.40
2023-03-08T00:12:33.026Z,57.30
2023-03-08T00:14:59.888Z,57.30
2023-03-08T00:17:26.841Z,57.30
2023-03-08T00:19:53.706Z,57.30
2023-03-08T00:22:20.641Z,57.20
2023-03-08T00:24:47.638Z,57.10
2023-03-08T00:27:14.545Z,57.10
2023-03-08T00:29:41.416Z,57.00
2023-03-08T00:32:08.405Z,57.00
2023-03-08T00:34:35.366Z,57.10
2023-03-08T00:37:02.271Z,57.10
2023-03-08T00:39:29.152Z,57.00
2023-03-08T00:41:56.096Z,57.10
2023-03-08T00:44:23.682Z,57.00
2023-03-08T00:46:51.739Z,57.00
2023-03-08T00:49:18.638Z,56.90
2023-03-08T00:51:45.751Z,56.80
2023-03-08T00:54:12.606Z,56.80
2023-03-08T00:56:39.632Z,56.70
2023-03-08T00:59:06.594Z,56.60
2023-03-08T01:01:34.036Z,56.50
2023-03-08T01:04:01.971Z,56.50
2023-03-08T01:06:28.927Z,56.40
2023-03-08T01:08:55.823Z,56.20
2023-03-08T01:11:26.168Z,56.10
2023-03-08T01:13:54.407Z,56.00
2023-03-08T01:16:24.406Z,55.80
2023-03-08T01:18:51.894Z,55.70
2023-03-08T01:21:20.919Z,55.50
2023-03-08T01:23:49.362Z,55.20
2023-03-08T01:26:20.027Z,55.10
2023-03-08T01:28:47.666Z,54.90
2023-03-08T01:31:17.206Z,54.80
2023-03-08T01:33:45.223Z,54.60
2023-03-08T01:36:16.847Z,54.50
2023-03-08T01:38:45.324Z,54.50
2023-03-08T01:41:18.398Z,54.50
2023-03-08T01:43:46.307Z,54.50
2023-03-08T01:46:16.230Z,54.60
2023-03-08T01:48:55.796Z,54.70
2023-03-08T01:51:53.992Z,54.80
2023-03-08T01:54:28.498Z,54.90
2023-03-08T01:57:05.590Z,55.10
2023-03-08T01:59:34.323Z,55.10
2023-03-08T02:02:07.452Z,55.20
2023-03-08T02:04:36.041Z,55.40
2023-03-08T02:07:03.081Z,55.50
2023-03-08T02:09:30.311Z,56.20
2023-03-08T02:12:03.089Z,55.80
2023-03-08T02:14:30.674Z,55.80
2023-03-08T02:16:57.700Z,55.90
2023-03-08T02:20:03.152Z,56.00
2023-03-08T02:22:30.241Z,56.00
2023-03-08T02:24:57.269Z,55.90
2023-03-08T02:27:27.233Z,56.00
2023-03-08T02:29:54.487Z,56.00
2023-03-08T02:32:23.316Z,56.10
2023-03-08T02:34:50.587Z,56.20
2023-03-08T02:37:17.756Z,56.20
2023-03-08T02:39:47.954Z,56.20
2023-03-08T02:42:14.880Z,56.20
2023-03-08T02:44:43.057Z,56.30
2023-03-08T02:47:10.270Z,56.20
2023-03-08T02:49:38.081Z,56.20
2023-03-08T02:52:05.337Z,56.30
2023-03-08T02:54:32.220Z,56.30
2023-03-08T02:56:59.205Z,56.30
2023-03-08T02:59:26.905Z,56.30
2023-03-08T03:01:55.548Z,56.30
2023-03-08T03:04:22.450Z,56.30
2023-03-08T03:06:49.883Z,56.40
2023-03-08T03:09:17.539Z,56.40
2023-03-08T03:11:44.563Z,56.40
2023-03-08T03:14:12.034Z,56.40
2023-03-08T03:16:42.745Z,56.30
2023-03-08T03:19:11.468Z,56.40
2023-03-08T03:21:41.568Z,56.30
2023-03-08T03:24:08.852Z,56.30
2023-03-08T03:26:44.055Z,56.30
2023-03-08T03:29:11.332Z,56.30
2023-03-08T03:31:40.996Z,56.20
2023-03-08T03:34:08.388Z,56.00
2023-03-08T03:36:35.777Z,56.00
2023-03-08T03:39:04.163Z,55.90
2023-03-08T03:41:33.976Z,55.90
2023-03-08T03:44:05.877Z,55.80
2023-03-08T03:46:33.744Z,55.80
2023-03-08T03:49:00.980Z,55.80
2023-03-08T03:51:33.702Z,55.70
2023-03-08T03:54:10.174Z,55.70
2023-03-08T03:56:38.740Z,55.60
2023-03-08T03:59:07.461Z,55.60
2023-03-08T04:01:34.605Z,55.60
2023-03-08T04:04:13.129Z,55.60
2023-03-08T04:06:43.103Z,55.50
2023-03-08T04:09:16.220Z,55.50
2023-03-08T04:11:46.137Z,55.40
2023-03-08T04:14:17.525Z,55.30
2023-03-08T04:16:45.314Z,55.30
2023-03-08T04:19:32.763Z,55.20
2023-03-08T04:22:00.910Z,55.20
2023-03-08T04:24:34.467Z,55.10
2023-03-08T04:27:06.055Z,55.10
2023-03-08T04:29:33.130Z,55.00
2023-03-08T04:32:00.615Z,55.00
2023-03-08T04:34:37.663Z,54.90
2023-03-08T04:37:05.341Z,54.80
2023-03-08T04:39:32.877Z,54.70
2023-03-08T04:42:00.050Z,54.70
2023-03-08T04:44:30.848Z,54.70
2023-03-08T04:46:58.664Z,54.60
2023-03-08T04:49:39.611Z,54.50
2023-03-08T04:52:07.658Z,54.60
2023-03-08T04:54:37.252Z,54.60
2023-03-08T04:57:11.330Z,54.50
2023-03-08T04:59:39.377Z,54.50
2023-03-08T05:02:07.230Z,54.50
2023-03-08T05:04:36.057Z,54.50
2023-03-08T05:07:03.497Z,54.60
2023-03-08T05:09:34.074Z,54.60
2023-03-08T05:12:02.264Z,54.70
2023-03-08T05:14:46.724Z,54.70
2023-03-08T05:17:14.425Z,54.80
2023-03-08T05:19:41.630Z,54.80
2023-03-08T05:22:09.360Z,54.80
2023-03-08T05:24:42.895Z,54.80
2023-03-08T05:27:12.609Z,54.70
2023-03-08T05:29:43.596Z,54.70
2023-03-08T05:32:13.822Z,54.70
2023-03-08T05:34:45.218Z,54.70
2023-03-08T05:37:21.973Z,54.70
2023-03-08T05:39:49.023Z,54.80
2023-03-08T05:42:20.551Z,54.70
2023-03-08T05:44:47.889Z,54.80
2023-03-08T05:47:19.936Z,54.70
2023-03-08T05:49:47.111Z,54.70
2023-03-08T05:52:15.175Z,54.70
2023-03-08T05:54:42.348Z,54.80
2023-03-08T05:57:14.728Z,54.80
2023-03-08T05:59:43.167Z,54.80
2023-03-08T06:02:14.018Z,54.80
2023-03-08T06:04:48.303Z,54.80
2023-03-08T06:07:18.843Z,54.90
2023-03-08T06:09:51.911Z,54.90
2023-03-08T06:12:19.141Z,54.80
2023-03-08T06:14:50.875Z,54.90
2023-03-08T06:17:24.196Z,55.10
2023-03-08T06:19:52.368Z,55.30
2023-03-08T06:22:19.870Z,56.00
2023-03-08T06:24:50.016Z,55.60
2023-03-08T06:27:24.864Z,55.80
2023-03-08T06:29:55.556Z,55.90
2023-03-08T06:32:23.373Z,55.90
2023-03-08T06:34:50.966Z,56.40
2023-03-08T06:37:18.667Z,56.20
2023-03-08T06:39:46.387Z,56.40
2023-03-08T06:42:13.499Z,56.60
2023-03-08T06:44:40.559Z,56.90
2023-03-08T06:47:08.176Z,57.00
2023-03-08T06:49:38.575Z,57.20
2023-03-08T06:52:06.778Z,57.40
2023-03-08T06:54:34.260Z,57.70
2023-03-08T06:57:05.754Z,58.00
2023-03-08T06:59:33.909Z,58.80
2023-03-08T07:02:01.018Z,58.60
2023-03-08T07:04:28.205Z,59.00
2023-03-08T07:06:55.399Z,59.30
2023-03-08T07:09:22.511Z,59.40
2023-03-08T07:11:49.546Z,59.70
2023-03-08T07:14:16.463Z,59.90
2023-03-08T07:16:43.873Z,60.00
2023-03-08T07:19:11.080Z,60.00
2023-03-08T07:21:38.512Z,60.00
2023-03-08T07:24:05.830Z,59.90
2023-03-08T07:26:32.944Z,59.80
2023-03-08T07:29:00.099Z,59.80
2023-03-08T07:31:29.057Z,59.80
2023-03-08T07:33:56.573Z,60.00
2023-03-08T07:36:23.883Z,60.30
2023-03-08T07:38:51.188Z,60.60
2023-03-08T07:41:18.212Z,61.00
2023-03-08T07:43:45.269Z,62.30
2023-03-08T07:46:20.561Z,62.10
2023-03-08T07:48:47.785Z,62.60
2023-03-08T07:51:14.949Z,62.90
2023-03-08T07:53:42.019Z,63.00
2023-03-08T07:56:09.735Z,62.70
2023-03-08T07:58:36.758Z,62.40
2023-03-08T08:01:14.624Z,62.60
2023-03-08T08:03:43.403Z,63.10
2023-03-08T08:06:10.624Z,63.20
2023-03-08T08:08:37.706Z,63.20
2023-03-08T08:11:14.996Z,63.10
2023-03-08T08:13:42.122Z,62.80
2023-03-08T08:16:10.093Z,62.50
2023-03-08T08:18:37.019Z,62.10
2023-03-08T08:21:09.630Z,61.80
2023-03-08T08:23:37.379Z,61.60
2023-03-08T08:26:13.359Z,61.30
2023-03-08T08:28:42.044Z,61.10
2023-03-08T08:31:12.387Z,61.10
2023-03-08T08:33:39.535Z,61.00
2023-03-08T08:36:09.023Z,60.90
2023-03-08T08:38:36.344Z,60.80
2023-03-08T08:41:05.809Z,60.70
2023-03-08T08:43:34.683Z,60.60
2023-03-08T08:46:02.767Z,60.60
2023-03-08T08:48:30.004Z,60.60
2023-03-08T08:50:58.288Z,60.50
2023-03-08T08:53:25.591Z,60.70
2023-03-08T08:55:52.699Z,61.00
2023-03-08T08:58:19.922Z,61.80
2023-03-08T09:00:47.080Z,62.60
2023-03-08T09:03:14.190Z,62.60
2023-03-08T09:05:44.468Z,62.60
2023-03-08T09:08:12.023Z,62.50
2023-03-08T09:10:40.226Z,62.60
2023-03-08T09:13:07.426Z,62.90
2023-03-08T09:15:36.302Z,63.20
2023-03-08T09:18:04.178Z,63.20
2023-03-08T09:20:31.336Z,63.20
2023-03-08T09:22:58.312Z,63.10
2023-03-08T09:25:25.237Z,63.20
2023-03-08T09:27:52.155Z,63.30
2023-03-08T09:30:19.273Z,63.20
2023-03-08T09:32:46.314Z,63.30
2023-03-08T09:35:15.136Z,64.40
2023-03-08T09:37:42.144Z,65.90
2023-03-08T09:40:23.382Z,66.90
2023-03-08T09:42:50.420Z,67.50
2023-03-08T09:45:28.843Z,67.80
2023-03-08T09:48:11.089Z,67.70
2023-03-08T09:50:45.370Z,67.20
2023-03-08T09:53:34.412Z,67.00
2023-03-08T09:56:38.413Z,67.00
2023-03-08T09:59:14.493Z,66.90
2023-03-08T10:01:58.556Z,67.00
2023-03-08T10:04:28.645Z,66.90
2023-03-08T10:07:10.830Z,67.00
2023-03-08T10:09:47.909Z,67.10
2023-03-08T10:12:20.811Z,66.90
2023-03-08T10:14:53.024Z,67.30
2023-03-08T10:17:23.506Z,67.60
2023-03-08T10:19:58.816Z,67.60
2023-03-08T10:22:29.703Z,68.00
2023-03-08T10:25:35.692Z,68.10
2023-03-08T10:28:09.713Z,68.50
2023-03-08T10:30:41.154Z,68.80
2023-03-08T10:33:11.951Z,68.90
2023-03-08T10:35:58.830Z,68.90
2023-03-08T10:38:32.011Z,68.80
2023-03-08T10:41:07.301Z,68.50
2023-03-08T10:43:41.628Z,68.70
2023-03-08T10:46:14.418Z,68.80
2023-03-08T10:48:41.510Z,68.90
2023-03-08T10:51:26.965Z,68.70
2023-03-08T10:53:59.900Z,68.90
2023-03-08T10:56:31.002Z,69.20
2023-03-08T10:58:58.827Z,69.50
2023-03-08T11:01:27.968Z,69.80
2023-03-08T11:04:04.354Z,70.20
2023-03-08T11:06:32.762Z,70.60
2023-03-08T11:09:02.276Z,70.80
2023-03-08T11:11:39.941Z,71.20
2023-03-08T11:14:10.771Z,71.40
2023-03-08T11:17:29.377Z,71.60
2023-03-08T11:20:11.301Z,71.80
2023-03-08T11:22:44.190Z,72.00
2023-03-08T11:25:22.685Z,72.10
2023-03-08T11:27:58.964Z,72.30
2023-03-08T11:30:45.804Z,72.30
2023-03-08T11:33:48.345Z,72.20
2023-03-08T11:36:24.730Z,72.30
2023-03-08T11:39:02.101Z,72.30
2023-03-08T11:41:47.739Z,72.00
2023-03-08T11:44:22.363Z,71.70
2023-03-08T11:47:03.868Z,71.60
2023-03-08T11:49:48.904Z,71.40
2023-03-08T11:52:53.178Z,71.10
2023-03-08T11:55:36.807Z,71.10
2023-03-08T11:58:22.473Z,71.10
2023-03-08T12:00:53.525Z,71.10
2023-03-08T12:03:24.350Z,70.80
2023-03-08T12:06:01.141Z,70.60
2023-03-08T12:08:33.405Z,70.30
2023-03-08T12:11:25.572Z,70.00
2023-03-08T12:13:57.961Z,69.80
2023-03-08T12:16:48.344Z,69.60
2023-03-08T12:19:32.927Z,69.50
2023-03-08T12:22:21.501Z,69.40
2023-03-08T12:25:29.010Z,69.20
2023-03-08T12:28:24.452Z,68.90
2023-03-08T12:31:27.515Z,68.60
2023-03-08T12:33:57.339Z,68.60
2023-03-08T12:36:40.339Z,68.70
2023-03-08T12:39:25.358Z,68.80
2023-03-08T12:42:00.847Z,68.90
2023-03-08T12:44:30.546Z,69.10
2023-03-08T12:47:17.422Z,69.40
2023-03-08T12:49:49.479Z,69.60
2023-03-08T12:52:19.549Z,69.80
2023-03-08T12:55:03.368Z,70.00
2023-03-08T12:57:43.128Z,70.00
2023-03-08T13:00:38.256Z,70.00
2023-03-08T13:03:14.528Z,69.90
2023-03-08T13:05:47.756Z,70.00
2023-03-08T13:08:14.791Z,70.20
2023-03-08T13:10:50.818Z,69.90
2023-03-08T13:13:37.504Z,69.60
2023-03-08T13:16:19.616Z,69.40
2023-03-08T13:18:49.395Z,69.00
2023-03-08T13:21:35.266Z,68.80
2023-03-08T13:24:41.450Z,68.40
2023-03-08T13:27:32.624Z,68.20
2023-03-08T13:30:17.886Z,68.10
2023-03-08T13:32:45.050Z,68.10
2023-03-08T13:35:15.658Z,67.80
2023-03-08T13:37:43.018Z,67.50
2023-03-08T13:40:19.248Z,67.30
2023-03-08T13:43:05.580Z,67.00
2023-03-08T13:45:32.584Z,66.90
2023-03-08T13:48:02.879Z,67.00
2023-03-08T13:50:38.633Z,66.90
2023-03-08T13:53:10.483Z,66.60
2023-03-08T13:55:45.253Z,66.30
2023-03-08T13:58:31.319Z,66.10
2023-03-08T14:01:01.882Z,66.00
2023-03-08T14:03:31.242Z,65.90
2023-03-08T14:05:58.922Z,65.90
2023-03-08T14:08:27.489Z,65.70
2023-03-08T14:11:02.177Z,65.40
2023-03-08T14:13:33.508Z,64.80
2023-03-08T14:16:05.527Z,64.70
2023-03-08T14:18:43.639Z,64.80
2023-03-08T14:21:15.421Z,64.60
2023-03-08T14:24:02.297Z,64.20
2023-03-08T14:26:34.001Z,63.40
2023-03-08T14:29:21.878Z,63.50
2023-03-08T14:32:10.554Z,63.70
2023-03-08T14:34:48.889Z,64.10
2023-03-08T14:37:27.579Z,63.90
2023-03-08T14:39:57.292Z,63.90
2023-03-08T14:42:36.617Z,63.80
2023-03-08T14:45:06.921Z,63.80
2023-03-08T14:47:35.895Z,63.70
2023-03-08T14:50:02.968Z,63.70
2023-03-08T14:52:32.292Z,63.60
2023-03-08T14:54:59.513Z,63.70
2023-03-08T14:57:28.537Z,63.70
2023-03-08T15:00:07.633Z,63.70
2023-03-08T15:02:35.627Z,63.70
2023-03-08T15:05:03.315Z,63.60
2023-03-08T15:07:34.211Z,63.80
2023-03-08T15:10:02.894Z,64.00
2023-03-08T15:12:30.176Z,64.10
2023-03-08T15:14:57.204Z,64.40
2023-03-08T15:17:24.177Z,64.80
2023-03-08T15:19:51.169Z,65.20
2023-03-08T15:22:18.253Z,65.60
2023-03-08T15:24:45.162Z,66.40
2023-03-08T15:27:16.420Z,66.70
2023-03-08T15:29:43.486Z,66.90
2023-03-08T15:32:10.513Z,67.10
2023-03-08T15:34:39.598Z,67.20
2023-03-08T15:37:07.465Z,67.40
2023-03-08T15:39:34.435Z,67.60
2023-03-08T15:42:01.369Z,68.20
2023-03-08T15:44:28.334Z,70.50
2023-03-08T15:46:55.281Z,72.30
2023-03-08T15:49:22.164Z,73.90
2023-03-08T15:51:49.092Z,75.10
2023-03-08T15:54:16.149Z,76.10
2023-03-08T15:56:43.034Z,76.80
2023-03-08T15:59:09.981Z,77.20
2023-03-08T16:01:37.306Z,77.70
2023-03-08T16:04:04.329Z,77.90
2023-03-08T16:06:32.272Z,78.10
2023-03-08T16:09:02.349Z,78.50
2023-03-08T16:11:29.232Z,78.70
2023-03-08T16:13:56.710Z,79.00
2023-03-08T16:16:35.040Z,79.30
2023-03-08T16:19:09.408Z,79.30
2023-03-08T16:21:36.335Z,79.40
2023-03-08T16:24:03.321Z,79.50
2023-03-08T16:26:30.217Z,79.60
2023-03-08T16:28:57.108Z,79.60
2023-03-08T16:31:24.120Z,79.80
2023-03-08T16:33:51.252Z,80.00
2023-03-08T16:36:18.224Z,80.40
2023-03-08T16:38:45.154Z,80.70
2023-03-08T16:41:13.940Z,81.00
2023-03-08T16:43:49.826Z,81.80
2023-03-08T16:46:20.929Z,82.80
2023-03-08T16:48:49.906Z,84.10
2023-03-08T16:51:19.413Z,85.70
2023-03-08T16:53:47.283Z,86.80
2023-03-08T16:56:22.980Z,87.80
2023-03-08T16:58:50.374Z,88.70
2023-03-08T17:01:19.703Z,89.70
2023-03-08T17:03:46.978Z,90.10
2023-03-08T17:06:16.363Z,90.10
2023-03-08T17:08:43.518Z,90.40
2023-03-08T17:11:17.498Z,90.50
2023-03-08T17:13:50.883Z,90.90
2023-03-08T17:16:22.496Z,91.10
2023-03-08T17:18:50.474Z,91.20
2023-03-08T17:21:18.618Z,91.40
2023-03-08T17:23:53.025Z,91.40
2023-03-08T17:26:23.136Z,91.50
2023-03-08T17:28:56.008Z,91.60
2023-03-08T17:31:24.122Z,91.80
2023-03-08T17:33:51.891Z,92.00
2023-03-08T17:36:19.349Z,92.10
2023-03-08T17:38:47.148Z,92.30
2023-03-08T17:41:15.749Z,92.40
2023-03-08T17:43:43.094Z,92.60
2023-03-08T17:46:18.766Z,92.80
2023-03-08T17:48:46.450Z,92.80
2023-03-08T17:51:16.536Z,92.90
2023-03-08T17:53:45.350Z,93.00
2023-03-08T17:56:21.859Z,93.00
2023-03-08T17:58:49.765Z,93.20
2023-03-08T18:01:20.638Z,93.10
2023-03-08T18:03:49.084Z,93.10
2023-03-08T18:06:29.026Z,93.20
2023-03-08T18:09:00.547Z,93.20
2023-03-08T18:11:35.526Z,93.20
2023-03-08T18:14:03.862Z,93.20
2023-03-08T18:16:32.644Z,93.20
2023-03-08T18:19:03.854Z,93.30
2023-03-08T18:21:33.143Z,93.40
2023-03-08T18:24:00.435Z,93.30
2023-03-08T18:26:28.101Z,93.30
2023-03-08T18:28:55.089Z,93.30
2023-03-08T18:31:26.380Z,93.40
2023-03-08T18:33:55.156Z,93.40
2023-03-08T18:36:23.192Z,93.40
2023-03-08T18:38:50.486Z,93.40
2023-03-08T18:41:22.256Z,93.40
2023-03-08T18:43:51.219Z,93.30
2023-03-08T18:46:18.428Z,93.30
2023-03-08T18:48:50.872Z,93.30
2023-03-08T18:51:18.107Z,93.20
2023-03-08T18:53:52.941Z,93.20
2023-03-08T18:56:20.054Z,93.10
2023-03-08T18:58:50.147Z,93.10
2023-03-08T19:01:17.371Z,93.10
2023-03-08T19:04:09.527Z,93.00
2023-03-08T19:06:36.918Z,92.90
2023-03-08T19:09:12.367Z,92.80
2023-03-08T19:11:40.438Z,92.80
2023-03-08T19:14:12.299Z,92.80
2023-03-08T19:16:39.472Z,92.70
2023-03-08T19:19:15.352Z,92.60
2023-03-08T19:21:47.591Z,92.50
2023-03-08T19:24:20.710Z,92.40
2023-03-08T19:26:51.352Z,92.30
2023-03-08T19:29:24.211Z,92.20
2023-03-08T19:32:22.287Z,92.10
2023-03-08T19:34:52.436Z,91.90
2023-03-08T19:37:19.664Z,91.70
2023-03-08T19:40:18.416Z,91.50
2023-03-08T19:42:47.903Z,91.30
2023-03-08T19:45:17.859Z,91.00
2023-03-08T19:47:45.021Z,90.80
2023-03-08T19:50:13.262Z,90.50
2023-03-08T19:52:44.694Z,90.20
2023-03-08T19:58:11.453Z,88.80
2023-03-08T20:00:44.377Z,87.90
2023-03-08T20:03:20.150Z,87.00
2023-03-08T20:05:48.027Z,86.30
2023-03-08T20:08:15.483Z,85.70
2023-03-08T20:10:45.715Z,85.90
2023-03-08T20:13:13.052Z,84.40
2023-03-08T20:15:40.223Z,83.50
2023-03-08T20:18:07.565Z,82.70
2023-03-08T20:20:34.902Z,82.30
2023-03-08T20:23:11.582Z,82.00
2023-03-08T20:25:39.371Z,81.50
2023-03-08T20:28:24.320Z,81.10
2023-03-08T20:31:12.250Z,80.50
2023-03-08T20:33:39.901Z,80.10
2023-03-08T20:36:07.455Z,79.90
2023-03-08T20:38:34.517Z,79.50
2023-03-08T20:41:03.051Z,79.40
2023-03-08T20:43:31.062Z,79.00
2023-03-08T20:45:59.977Z,78.50
2023-03-08T20:48:29.038Z,78.20
2023-03-08T20:51:00.919Z,77.70
2023-03-08T20:53:29.356Z,76.90
2023-03-08T20:55:56.592Z,77.50
2023-03-08T20:58:24.912Z,76.50
2023-03-08T21:00:53.134Z,76.10
2023-03-08T21:03:20.325Z,76.00
2023-03-08T21:05:47.301Z,76.00
2023-03-08T21:08:14.223Z,75.90
2023-03-08T21:10:41.312Z,75.80
2023-03-08T21:13:08.534Z,75.50
2023-03-08T21:15:35.883Z,75.50
2023-03-08T21:18:02.867Z,75.40
2023-03-08T21:20:29.817Z,75.30
2023-03-08T21:22:57.037Z,75.20
2023-03-08T21:25:23.974Z,75.10
2023-03-08T21:27:51.329Z,75.00
2023-03-08T21:30:18.482Z,74.50
2023-03-08T21:32:45.762Z,74.20
2023-03-08T21:35:12.749Z,73.90
2023-03-08T21:37:39.618Z,73.80
2023-03-08T21:40:07.457Z,73.90
2023-03-08T21:42:34.386Z,76.00
2023-03-08T21:45:01.252Z,78.80
2023-03-08T21:47:28.203Z,81.70
2023-03-08T21:49:55.133Z,84.90
2023-03-08T21:52:22.025Z,88.50
2023-03-08T21:54:49.003Z,90.80
2023-03-08T21:57:15.873Z,91.80
2023-03-08T21:59:42.745Z,92.40
2023-03-08T22:02:10.518Z,92.80
2023-03-08T22:04:39.185Z,93.20
2023-03-08T22:07:07.042Z,93.70
2023-03-08T22:09:34.011Z,93.60
2023-03-08T22:12:01.564Z,93.80
2023-03-08T22:14:29.004Z,93.90
2023-03-08T22:16:56.613Z,93.90
2023-03-08T22:19:23.609Z,94.10
2023-03-08T22:21:50.679Z,94.20
2023-03-08T22:24:17.706Z,94.20
2023-03-08T22:26:44.747Z,94.20
2023-03-08T22:29:11.615Z,94.30
2023-03-08T22:31:38.508Z,94.30
2023-03-08T22:34:07.730Z,94.30
2023-03-08T22:36:35.012Z,94.40
2023-03-08T22:39:01.917Z,94.40
2023-03-08T22:41:29.075Z,94.40
2023-03-08T22:43:56.088Z,94.30
2023-03-08T22:46:27.810Z,94.40
2023-03-08T22:48:56.946Z,94.40
2023-03-08T22:51:24.401Z,94.30
2023-03-08T22:53:51.622Z,94.30
2023-03-08T22:56:29.683Z,94.20
2023-03-08T22:58:58.014Z,94.20
2023-03-08T23:01:26.189Z,94.30
2023-03-08T23:03:55.089Z,94.20
2023-03-08T23:06:22.649Z,94.10
2023-03-08T23:08:50.496Z,94.10
2023-03-08T23:11:17.541Z,94.00
2023-03-08T23:13:44.524Z,94.00
2023-03-08T23:16:16.408Z,94.00
2023-03-08T23:18:44.298Z,94.00
2023-03-08T23:21:13.898Z,93.90
2023-03-08T23:23:41.394Z,93.90
2023-03-08T23:26:12.923Z,93.80
2023-03-08T23:28:40.355Z,93.70
2023-03-08T23:31:11.662Z,93.60
2023-03-08T23:33:38.961Z,93.40
2023-03-08T23:36:06.563Z,93.20
2023-03-08T23:38:33.734Z,93.00
2023-03-08T23:41:05.204Z,92.80
2023-03-08T23:43:33.006Z,92.60
2023-03-08T23:46:00.144Z,92.50
2023-03-08T23:48:27.244Z,92.20
2023-03-08T23:50:54.267Z,92.20
2023-03-08T23:53:22.524Z,92.00
2023-03-08T23:55:49.704Z,91.70
2023-03-08T23:58:16.890Z,91.50
